createdAt,value
2017-01-28T18:07:30.022Z,21.1
2017-01-28T18:08:10.575Z,21.11
2017-01-28T18:08:51.128Z,21.03
2017-01-28T18:09:31.658Z,21.05
2017-01-28T18:10:12.174Z,21.07
2017-01-28T18:10:52.695Z,21.04
2017-01-28T18:11:33.215Z,21.1
2017-01-28T18:12:13.751Z,21.11
2017-01-28T18:12:54.310Z,21.08
2017-01-28T18:13:34.844Z,21.1
2017-01-28T18:14:15.368Z,21.14
2017-01-28T18:14:55.901Z,21.14
2017-01-28T18:15:36.422Z,21.15
2017-01-28T18:16:16.949Z,21.17
2017-01-28T18:16:57.490Z,21.13
2017-01-28T18:17:38.012Z,21.19
2017-01-28T18:18:18.563Z,21.15
2017-01-28T18:18:59.037Z,21.2
2017-01-28T18:19:39.560Z,21.2
2017-01-28T18:20:20.085Z,21.2
2017-01-28T18:21:00.618Z,21.2
2017-01-28T18:21:41.187Z,21.15
2017-01-28T18:22:21.684Z,21.15
2017-01-28T18:23:02.247Z,21.15
2017-01-28T18:23:42.746Z,21.15
2017-01-28T18:24:23.272Z,21.2
2017-01-28T18:25:03.777Z,21.2
2017-01-28T18:25:44.308Z,21.25
2017-01-28T18:26:24.840Z,21.26
2017-01-28T18:27:05.377Z,21.17
2017-01-28T18:27:45.911Z,21.26
2017-01-28T18:28:26.468Z,21.29
2017-01-28T18:29:07.018Z,21.26
2017-01-28T18:29:47.594Z,21.29
2017-01-28T18:30:28.145Z,21.25
2017-01-28T18:31:08.736Z,21.29
2017-01-28T18:31:49.270Z,21.25
2017-01-28T18:32:29.799Z,21.3
2017-01-28T18:33:10.373Z,21.3
2017-01-28T18:33:50.904Z,21.3
2017-01-28T18:34:31.437Z,21.32
2017-01-28T18:35:12.025Z,21.28
2017-01-28T18:35:52.601Z,21.19
2017-01-28T18:36:33.139Z,21.41
2017-01-28T18:37:13.734Z,21.44
2017-01-28T18:37:54.240Z,21.35
2017-01-28T18:38:34.759Z,21.37
2017-01-28T18:39:15.291Z,21.35
2017-01-28T18:39:55.823Z,21.44
2017-01-28T18:40:36.352Z,21.38
2017-01-28T18:41:16.890Z,21.43
2017-01-28T18:41:57.421Z,21.32
2017-01-28T18:42:37.960Z,21.41
2017-01-28T18:43:18.538Z,21.33
2017-01-28T18:43:59.089Z,21.37
2017-01-28T18:44:39.620Z,21.4
2017-01-28T18:45:20.201Z,21.32
2017-01-28T18:46:00.753Z,21.38
2017-01-28T18:46:41.328Z,21.4
2017-01-28T18:47:21.871Z,21.45
2017-01-28T18:48:02.380Z,21.4
2017-01-28T18:48:42.963Z,21.4
2017-01-28T18:49:23.490Z,21.37
2017-01-28T18:50:04.042Z,21.32
2017-01-28T18:50:44.577Z,21.26
2017-01-28T18:51:25.121Z,21.17
2017-01-28T18:52:05.670Z,21.19
2017-01-28T18:52:46.208Z,21.19
2017-01-28T18:53:26.779Z,21.17
2017-01-28T18:54:07.305Z,21.17
2017-01-28T18:54:47.835Z,21.19
2017-01-28T18:55:28.384Z,21.15
2017-01-28T18:56:08.924Z,21.14
2017-01-28T18:56:49.497Z,21.11
2017-01-28T18:57:30.052Z,21.07
2017-01-28T18:58:10.578Z,21.11
2017-01-28T18:58:51.126Z,21.15
2017-01-28T18:59:31.661Z,21.1
2017-01-28T19:00:12.215Z,21.1
2017-01-28T19:00:52.759Z,21.1
2017-01-28T19:01:33.314Z,21.11
2017-01-28T19:02:13.866Z,21.14
2017-01-28T19:02:54.392Z,21.08
2017-01-28T19:03:34.918Z,21.1
2017-01-28T19:04:15.462Z,21.15
2017-01-28T19:04:56.013Z,21.13
2017-01-28T19:05:36.571Z,21.13
2017-01-28T19:06:17.110Z,21.13
2017-01-28T19:06:57.632Z,21.15
2017-01-28T19:07:38.194Z,21.08
2017-01-28T19:08:18.765Z,21.05
2017-01-28T19:08:59.293Z,21.15
2017-01-28T19:09:39.836Z,21.08
2017-01-28T19:10:20.397Z,21.07
2017-01-28T19:11:00.963Z,21.13
2017-01-28T19:11:41.501Z,21.17
2017-01-28T19:12:22.079Z,21.13
2017-01-28T19:13:02.674Z,21.15
2017-01-28T19:13:43.410Z,21.11
2017-01-28T19:14:24.147Z,21.14
2017-01-28T19:15:04.919Z,21.13
2017-01-28T19:15:45.493Z,21.13
2017-01-28T19:16:26.027Z,21.17
2017-01-28T19:17:06.586Z,21.15
2017-01-28T19:17:47.113Z,21.1
2017-01-28T19:18:27.668Z,21.17
2017-01-28T19:19:08.195Z,21.15
2017-01-28T19:19:48.727Z,21.14
2017-01-28T19:20:29.258Z,21.13
2017-01-28T19:21:09.790Z,21.08
2017-01-28T19:21:50.353Z,21.17
2017-01-28T19:22:30.908Z,21.22
2017-01-28T19:23:11.452Z,21.1
2017-01-28T19:23:52.032Z,21.19
2017-01-28T19:24:32.610Z,21.14
2017-01-28T19:25:13.139Z,21.1
2017-01-28T19:25:53.732Z,21.11
2017-01-28T19:26:34.254Z,21.14
2017-01-28T19:27:14.811Z,21.14
2017-01-28T19:27:55.319Z,21.07
2017-01-28T19:28:35.851Z,21.19
2017-01-28T19:29:16.371Z,21.15
2017-01-28T19:29:56.918Z,21.08
2017-01-28T19:30:37.442Z,21.19
2017-01-28T19:31:17.969Z,21.17
2017-01-28T19:31:58.515Z,21.14
2017-01-28T19:32:39.066Z,21.17
2017-01-28T19:33:19.573Z,21.14
2017-01-28T19:34:00.115Z,21.13
2017-01-28T19:34:40.668Z,21.17
2017-01-28T19:35:21.207Z,21.13
2017-01-28T19:36:01.734Z,21.22
2017-01-28T19:36:42.272Z,21.15
2017-01-28T19:37:22.795Z,21.19
2017-01-28T19:38:03.329Z,21.22
2017-01-28T19:38:43.886Z,21.19
2017-01-28T19:39:24.418Z,21.17
2017-01-28T19:40:04.949Z,21.15
2017-01-28T19:40:45.516Z,21.17
2017-01-28T19:41:26.042Z,21.15
2017-01-28T19:42:06.575Z,21.19
2017-01-28T19:42:47.138Z,21.19
2017-01-28T19:43:27.681Z,21.17
2017-01-28T19:44:08.211Z,21.2
2017-01-28T19:44:48.751Z,21.2
2017-01-28T19:45:29.273Z,21.15
2017-01-28T19:46:09.836Z,21.08
2017-01-28T19:46:50.387Z,21.14
2017-01-28T19:47:30.893Z,21.14
2017-01-28T19:48:11.445Z,21.17
2017-01-28T19:48:52.005Z,21.17
2017-01-28T19:49:32.534Z,21.13
2017-01-28T19:50:13.106Z,21.17
2017-01-28T19:50:53.636Z,21.17
2017-01-28T19:51:34.985Z,21.23
2017-01-28T19:52:14.905Z,21.17
2017-01-28T19:52:55.513Z,21.11
2017-01-28T19:53:36.066Z,21.17
2017-01-28T19:54:16.636Z,21.17
2017-01-28T19:54:57.229Z,21.14
2017-01-28T19:55:37.768Z,21.23
2017-01-28T19:56:18.332Z,21.17
2017-01-28T19:56:58.881Z,21.14
2017-01-28T19:57:39.406Z,21.23
2017-01-28T19:58:19.914Z,21.22
2017-01-28T19:59:00.466Z,21.11
2017-01-28T19:59:41.029Z,21.2
2017-01-28T20:00:21.563Z,21.1
2017-01-28T20:01:02.156Z,21.17
2017-01-28T20:01:42.720Z,21.14
2017-01-28T20:02:23.291Z,21.17
2017-01-28T20:03:03.814Z,21.2
2017-01-28T20:03:44.386Z,21.22
2017-01-28T20:04:25.121Z,21.22
2017-01-28T20:05:05.729Z,21.13
2017-01-28T20:05:46.247Z,21.17
2017-01-28T20:06:26.796Z,21.14
2017-01-28T20:07:07.308Z,21.26
2017-01-28T20:07:47.846Z,21.22
2017-01-28T20:08:28.379Z,21.14
2017-01-28T20:09:08.924Z,21.19
2017-01-28T20:09:49.468Z,21.2
2017-01-28T20:10:30.057Z,21.25
2017-01-28T20:11:10.630Z,21.23
2017-01-28T20:11:51.206Z,21.2
2017-01-28T20:12:31.702Z,21.19
2017-01-28T20:13:12.208Z,21.17
2017-01-28T20:13:52.733Z,21.19
2017-01-28T20:14:33.265Z,21.08
2017-01-28T20:15:13.779Z,21.2
2017-01-28T20:15:54.287Z,21.15
2017-01-28T20:16:34.848Z,21.17
2017-01-28T20:17:15.390Z,21.14
2017-01-28T20:17:55.935Z,21.2
2017-01-28T20:18:36.439Z,21.17
2017-01-28T20:19:16.982Z,21.15
2017-01-28T20:19:57.511Z,21.13
2017-01-28T20:20:38.066Z,21.17
2017-01-28T20:21:18.606Z,21.2
2017-01-28T20:21:59.134Z,21.17
2017-01-28T20:22:39.705Z,21.23
2017-01-28T20:23:20.246Z,21.2
2017-01-28T20:24:00.770Z,21.2
2017-01-28T20:24:41.282Z,21.25
2017-01-28T20:25:21.818Z,21.23
2017-01-28T20:26:02.372Z,21.14
2017-01-28T20:26:42.919Z,21.2
2017-01-28T20:27:23.478Z,21.14
2017-01-28T20:28:03.993Z,21.19
2017-01-28T20:28:44.520Z,21.11
2017-01-28T20:29:25.044Z,21.17
2017-01-28T20:30:05.572Z,21.22
2017-01-28T20:30:46.107Z,21.14
2017-01-28T20:31:26.637Z,21.19
2017-01-28T20:32:07.176Z,21.2
2017-01-28T20:32:47.701Z,21.13
2017-01-28T20:33:28.214Z,21.2
2017-01-28T20:34:08.754Z,21.22
2017-01-28T20:34:49.287Z,21.2
2017-01-28T20:35:29.817Z,21.22
2017-01-28T20:36:10.345Z,21.14
2017-01-28T20:36:50.877Z,21.17
2017-01-28T20:37:31.424Z,21.25
2017-01-28T20:38:11.946Z,21.22
2017-01-28T20:38:52.479Z,21.22
2017-01-28T20:39:33.023Z,21.23
2017-01-28T20:40:13.570Z,21.17
2017-01-28T20:40:54.099Z,21.26
2017-01-28T20:41:34.623Z,21.25
2017-01-28T20:42:15.143Z,21.22
2017-01-28T20:42:55.713Z,21.15
2017-01-28T20:43:36.228Z,21.19
2017-01-28T20:44:16.757Z,21.25
2017-01-28T20:44:57.323Z,21.28
2017-01-28T20:45:37.848Z,21.15
2017-01-28T20:46:18.445Z,21.22
2017-01-28T20:46:59.078Z,21.17
2017-01-28T20:47:39.648Z,21.17
2017-01-28T20:48:20.142Z,21.2
2017-01-28T20:49:00.683Z,21.15
2017-01-28T20:49:41.241Z,21.17
2017-01-28T20:50:21.779Z,21.25
2017-01-28T20:51:02.296Z,21.25
2017-01-28T20:51:42.833Z,21.22
2017-01-28T20:52:23.345Z,21.26
2017-01-28T20:53:03.860Z,21.17
2017-01-28T20:53:44.419Z,21.25
2017-01-28T20:54:25.084Z,21.2
2017-01-28T20:55:05.623Z,21.19
2017-01-28T20:55:46.148Z,21.17
2017-01-28T20:56:26.740Z,21.19
2017-01-28T20:57:07.277Z,21.26
2017-01-28T20:57:47.816Z,21.25
2017-01-28T20:58:28.444Z,21.3
2017-01-28T20:59:08.993Z,21.35
2017-01-28T20:59:49.580Z,21.3
2017-01-28T21:00:30.248Z,21.25
2017-01-28T21:01:10.790Z,21.32
2017-01-28T21:01:51.344Z,21.29
2017-01-28T21:02:31.880Z,21.3
2017-01-28T21:03:12.419Z,21.33
2017-01-28T21:03:52.979Z,21.28
2017-01-28T21:04:33.546Z,21.28
2017-01-28T21:05:14.201Z,21.23
2017-01-28T21:05:54.753Z,21.22
2017-01-28T21:06:35.316Z,21.26
2017-01-28T21:07:15.882Z,21.26
2017-01-28T21:07:56.485Z,21.19
2017-01-28T21:08:37.095Z,21.26
2017-01-28T21:09:17.661Z,21.25
2017-01-28T21:09:58.224Z,21.25
2017-01-28T21:10:38.938Z,21.3
2017-01-28T21:11:19.460Z,21.38
2017-01-28T21:11:59.979Z,21.22
2017-01-28T21:12:40.554Z,21.26
2017-01-28T21:13:22.070Z,21.26
2017-01-28T21:14:02.678Z,21.28
2017-01-28T21:14:43.260Z,21.22
2017-01-28T21:15:23.993Z,21.26
2017-01-28T21:16:04.650Z,21.32
2017-01-28T21:16:45.251Z,21.29
2017-01-28T21:17:25.835Z,21.26
2017-01-28T21:18:06.367Z,21.25
2017-01-28T21:18:46.974Z,21.29
2017-01-28T21:19:27.536Z,21.32
2017-01-28T21:20:08.458Z,21.29
2017-01-28T21:20:49.097Z,21.25
2017-01-28T21:21:29.623Z,21.3
2017-01-28T21:22:10.170Z,21.26
2017-01-28T21:22:50.714Z,21.23
2017-01-28T21:23:31.359Z,21.23
2017-01-28T21:24:12.966Z,21.25
2017-01-28T21:24:53.540Z,21.23
2017-01-28T21:25:34.115Z,21.2
2017-01-28T21:26:15.030Z,21.29
2017-01-28T21:26:55.565Z,21.25
2017-01-28T21:27:36.154Z,21.22
2017-01-28T21:28:17.032Z,21.28
2017-01-28T21:28:57.599Z,21.25
2017-01-28T21:29:38.216Z,21.29
2017-01-28T21:30:18.815Z,21.33
2017-01-28T21:30:59.344Z,21.3
2017-01-28T21:31:39.886Z,21.28
2017-01-28T21:32:20.450Z,21.23
2017-01-28T21:33:01.188Z,21.29
2017-01-28T21:33:41.714Z,21.25
2017-01-28T21:34:22.285Z,21.19
2017-01-28T21:35:02.815Z,21.26
2017-01-28T21:35:43.394Z,21.28
2017-01-28T21:36:23.924Z,21.26
2017-01-28T21:37:04.512Z,21.28
2017-01-28T21:37:45.098Z,21.25
2017-01-28T21:38:25.692Z,21.23
2017-01-28T21:39:06.299Z,21.26
2017-01-28T21:39:46.900Z,21.25
2017-01-28T21:40:27.467Z,21.26
2017-01-28T21:41:08.045Z,21.26
2017-01-28T21:41:48.580Z,21.32
2017-01-28T21:42:29.109Z,21.28
2017-01-28T21:43:09.651Z,21.32
2017-01-28T21:43:50.205Z,21.32
2017-01-28T21:44:30.725Z,21.25
2017-01-28T21:45:11.249Z,21.33
2017-01-28T21:45:51.795Z,21.37
2017-01-28T21:46:32.344Z,21.35
2017-01-28T21:47:12.864Z,21.33
2017-01-28T21:47:53.395Z,21.3
2017-01-28T21:48:33.920Z,21.37
2017-01-28T21:49:14.478Z,21.33
2017-01-28T21:49:54.993Z,21.3
2017-01-28T21:50:35.536Z,21.32
2017-01-28T21:51:16.059Z,21.29
2017-01-28T21:51:56.582Z,21.35
2017-01-28T21:52:37.124Z,21.35
2017-01-28T21:53:17.659Z,21.32
2017-01-28T21:53:58.172Z,21.41
2017-01-28T21:54:38.755Z,21.33
2017-01-28T21:55:19.279Z,21.32
2017-01-28T21:55:59.802Z,21.3
2017-01-28T21:56:40.331Z,21.41
2017-01-28T21:57:20.902Z,21.4
2017-01-28T21:58:01.510Z,21.33
2017-01-28T21:58:42.038Z,21.33
2017-01-28T21:59:22.600Z,21.43
2017-01-28T22:00:03.177Z,21.37
2017-01-28T22:00:43.714Z,21.33
2017-01-28T22:01:24.287Z,21.33
2017-01-28T22:02:04.870Z,21.35
2017-01-28T22:02:45.403Z,21.32
2017-01-28T22:03:25.945Z,21.35
2017-01-28T22:04:06.460Z,21.37
2017-01-28T22:04:46.976Z,21.37
2017-01-28T22:05:27.512Z,21.4
2017-01-28T22:06:08.052Z,21.45
2017-01-28T22:06:48.674Z,21.38
2017-01-28T22:07:29.235Z,21.32
2017-01-28T22:08:09.764Z,21.41
2017-01-28T22:08:50.316Z,21.37
2017-01-28T22:09:30.901Z,21.38
2017-01-28T22:10:11.424Z,21.45
2017-01-28T22:10:51.994Z,21.4
2017-01-28T22:11:32.506Z,21.37
2017-01-28T22:12:13.030Z,21.43
2017-01-28T22:12:53.541Z,21.41
2017-01-28T22:13:34.093Z,21.33
2017-01-28T22:14:14.615Z,21.43
2017-01-28T22:14:55.157Z,21.4
2017-01-28T22:15:35.683Z,21.33
2017-01-28T22:16:16.247Z,21.35
2017-01-28T22:16:56.803Z,21.4
2017-01-28T22:17:37.356Z,21.33
2017-01-28T22:18:17.885Z,21.43
2017-01-28T22:18:58.414Z,21.35
2017-01-28T22:19:38.966Z,21.35
2017-01-28T22:20:19.491Z,21.44
2017-01-28T22:21:00.012Z,21.4
2017-01-28T22:21:40.552Z,21.44
2017-01-28T22:22:21.090Z,21.37
2017-01-28T22:23:01.619Z,21.44
2017-01-28T22:23:42.139Z,21.37
2017-01-28T22:24:22.673Z,21.4
2017-01-28T22:25:03.193Z,21.33
2017-01-28T22:25:43.733Z,21.44
2017-01-28T22:26:24.261Z,21.35
2017-01-28T22:27:04.840Z,21.35
2017-01-28T22:27:45.382Z,21.37
2017-01-28T22:28:25.917Z,21.43
2017-01-28T22:29:06.467Z,21.45
2017-01-28T22:29:47.009Z,21.38
2017-01-28T22:30:27.547Z,21.44
2017-01-28T22:31:08.082Z,21.38
2017-01-28T22:31:48.625Z,21.44
2017-01-28T22:32:29.139Z,21.41
2017-01-28T22:33:09.674Z,21.44
2017-01-28T22:33:50.227Z,21.44
2017-01-28T22:34:30.795Z,21.37
2017-01-28T22:35:11.337Z,21.33
2017-01-28T22:35:51.864Z,21.38
2017-01-28T22:36:32.420Z,21.37
2017-01-28T22:37:12.987Z,21.33
2017-01-28T22:37:53.527Z,21.44
2017-01-28T22:38:34.064Z,21.35
2017-01-28T22:39:15.372Z,21.45
2017-01-28T22:39:55.898Z,21.4
2017-01-28T22:40:36.432Z,21.38
2017-01-28T22:41:16.952Z,21.37
2017-01-28T22:41:57.507Z,21.4
2017-01-28T22:42:38.046Z,21.32
2017-01-28T22:43:18.575Z,21.38
2017-01-28T22:43:59.104Z,21.33
2017-01-28T22:44:39.670Z,21.35
2017-01-28T22:45:20.194Z,21.33
2017-01-28T22:46:00.763Z,21.33
2017-01-28T22:46:41.323Z,21.41
2017-01-28T22:47:21.835Z,21.37
2017-01-28T22:48:02.385Z,21.33
2017-01-28T22:48:42.980Z,21.37
2017-01-28T22:49:23.510Z,21.38
2017-01-28T22:50:04.047Z,21.45
2017-01-28T22:50:44.579Z,21.38
2017-01-28T22:51:25.110Z,21.43
2017-01-28T22:52:05.635Z,21.44
2017-01-28T22:52:46.181Z,21.44
2017-01-28T22:53:26.712Z,21.4
2017-01-28T22:54:07.233Z,21.51
2017-01-28T22:54:47.811Z,21.41
2017-01-28T22:55:28.370Z,21.44
2017-01-28T22:56:08.913Z,21.45
2017-01-28T22:56:49.438Z,21.47
2017-01-28T22:57:29.971Z,21.53
2017-01-28T22:58:10.491Z,21.5
2017-01-28T22:58:51.017Z,21.45
2017-01-28T22:59:31.552Z,21.47
2017-01-28T23:00:12.079Z,21.48
2017-01-28T23:00:52.614Z,21.47
2017-01-28T23:01:33.142Z,21.5
2017-01-28T23:02:13.671Z,21.43
2017-01-28T23:02:54.217Z,21.47
2017-01-28T23:03:34.752Z,21.45
2017-01-28T23:04:15.311Z,21.44
2017-01-28T23:04:55.847Z,21.45
2017-01-28T23:05:36.373Z,21.45
2017-01-28T23:06:16.878Z,21.48
2017-01-28T23:06:57.391Z,21.5
2017-01-28T23:07:37.925Z,21.45
2017-01-28T23:08:18.457Z,21.45
2017-01-28T23:08:58.998Z,21.45
2017-01-28T23:09:39.587Z,21.47
2017-01-28T23:10:20.129Z,21.47
2017-01-28T23:11:00.668Z,21.44
2017-01-28T23:11:41.229Z,21.41
2017-01-28T23:12:21.764Z,21.44
2017-01-28T23:13:02.298Z,21.41
2017-01-28T23:13:42.834Z,21.47
2017-01-28T23:14:23.367Z,21.48
2017-01-28T23:15:03.939Z,21.59
2017-01-28T23:15:44.478Z,21.47
2017-01-28T23:16:25.029Z,21.45
2017-01-28T23:17:05.560Z,21.3
2017-01-28T23:17:46.101Z,21.33
2017-01-28T23:18:26.631Z,21.26
2017-01-28T23:19:07.179Z,21.33
2017-01-28T23:19:47.720Z,21.26
2017-01-28T23:20:28.263Z,21.26
2017-01-28T23:21:08.786Z,21.3
2017-01-28T23:21:49.336Z,21.25
2017-01-28T23:22:29.859Z,21.25
2017-01-28T23:23:10.411Z,21.29
2017-01-28T23:23:50.939Z,21.26
2017-01-28T23:24:31.441Z,21.3
2017-01-28T23:25:11.971Z,21.28
2017-01-28T23:25:52.495Z,21.17
2017-01-28T23:26:33.010Z,21.25
2017-01-28T23:27:13.574Z,21.35
2017-01-28T23:27:54.102Z,21.37
2017-01-28T23:28:34.642Z,21.33
2017-01-28T23:29:15.178Z,21.23
2017-01-28T23:29:55.706Z,21.32
2017-01-28T23:30:36.255Z,21.38
2017-01-28T23:31:16.786Z,21.38
2017-01-28T23:31:57.335Z,21.37
2017-01-28T23:32:37.929Z,21.37
2017-01-28T23:33:18.441Z,21.44
2017-01-28T23:33:58.982Z,21.4
2017-01-28T23:34:39.508Z,21.32
2017-01-28T23:35:20.081Z,21.43
2017-01-28T23:36:00.590Z,21.41
2017-01-28T23:36:41.140Z,21.37
2017-01-28T23:37:21.674Z,21.44
2017-01-28T23:38:02.198Z,21.45
2017-01-28T23:38:42.737Z,21.43
2017-01-28T23:39:23.263Z,21.44
2017-01-28T23:40:03.800Z,21.45
2017-01-28T23:40:44.352Z,21.45
2017-01-28T23:41:24.869Z,21.45
2017-01-28T23:42:05.583Z,21.5
2017-01-28T23:42:46.101Z,21.5
2017-01-28T23:43:26.620Z,21.53
2017-01-28T23:44:07.155Z,21.43
2017-01-28T23:44:47.694Z,21.53
2017-01-28T23:45:28.235Z,21.59
2017-01-28T23:46:08.786Z,21.59
2017-01-28T23:46:49.351Z,21.6
2017-01-28T23:47:29.883Z,21.6
2017-01-28T23:48:10.411Z,21.66
2017-01-28T23:48:50.979Z,21.59
2017-01-28T23:49:31.543Z,21.63
2017-01-28T23:50:12.049Z,21.63
2017-01-28T23:50:52.580Z,21.6
2017-01-28T23:51:33.126Z,21.59
2017-01-28T23:52:13.624Z,21.58
2017-01-28T23:52:54.161Z,21.59
2017-01-28T23:53:34.686Z,21.63
2017-01-28T23:54:15.234Z,21.66
2017-01-28T23:54:55.764Z,21.65
2017-01-28T23:55:36.316Z,21.69
2017-01-28T23:56:16.862Z,21.6
2017-01-28T23:56:57.381Z,21.72
2017-01-28T23:57:37.911Z,21.69
2017-01-28T23:58:18.472Z,21.72
2017-01-28T23:58:58.991Z,21.77
2017-01-28T23:59:39.547Z,21.68
